sensor_id;sensor_type;location;lat;lon;timestamp;pressure;altitude;pressure_sealevel;temperature;humidity
30724;BME280;17473;52.286;20.930;2023-05-01T00:00:56;100884.41;;;7.88;56.33
30724;BME280;17473;52.286;20.930;2023-05-01T00:03:24;100884.00;;;7.80;56.43
30724;BME280;17473;52.286;20.930;2023-05-01T00:05:57;100893.97;;;7.69;57.21
30724;BME280;17473;52.286;20.930;2023-05-01T00:08:24;100891.25;;;7.67;56.99
30724;BME280;17473;52.286;20.930;2023-05-01T00:10:52;100893.47;;;7.76;56.63
30724;BME280;17473;52.286;20.930;2023-05-01T00:13:19;100900.13;;;7.70;56.53
30724;BME280;17473;52.286;20.930;2023-05-01T00:15:48;100894.47;;;7.62;56.91
30724;BME280;17473;52.286;20.930;2023-05-01T00:18:15;100893.22;;;7.55;57.00
30724;BME280;17473;52.286;20.930;2023-05-01T00:20:42;100896.41;;;7.49;57.65
30724;BME280;17473;52.286;20.930;2023-05-01T00:23:09;100887.63;;;7.32;58.13
30724;BME280;17473;52.286;20.930;2023-05-01T00:25:38;100898.56;;;7.57;57.45
30724;BME280;17473;52.286;20.930;2023-05-01T00:28:05;100894.34;;;7.27;58.22
30724;BME280;17473;52.286;20.930;2023-05-01T00:30:33;100900.44;;;7.43;57.99
30724;BME280;17473;52.286;20.930;2023-05-01T00:33:00;100896.06;;;7.27;57.98
30724;BME280;17473;52.286;20.930;2023-05-01T00:35:28;100895.47;;;7.16;58.69
30724;BME280;17473;52.286;20.930;2023-05-01T00:37:56;100900.28;;;7.08;59.23
30724;BME280;17473;52.286;20.930;2023-05-01T00:40:23;100897.38;;;7.18;58.57
30724;BME280;17473;52.286;20.930;2023-05-01T00:42:50;100889.59;;;7.05;59.20
30724;BME280;17473;52.286;20.930;2023-05-01T00:45:17;100895.03;;;7.08;59.90
30724;BME280;17473;52.286;20.930;2023-05-01T00:47:44;100896.66;;;7.06;59.77
30724;BME280;17473;52.286;20.930;2023-05-01T00:50:12;100896.78;;;7.08;59.30
30724;BME280;17473;52.286;20.930;2023-05-01T00:52:39;100894.47;;;6.82;59.90
30724;BME280;17473;52.286;20.930;2023-05-01T00:55:07;100899.78;;;6.99;59.75
30724;BME280;17473;52.286;20.930;2023-05-01T00:57:34;100901.13;;;6.92;59.79
30724;BME280;17473;52.286;20.930;2023-05-01T01:00:03;100899.28;;;6.74;60.45
30724;BME280;17473;52.286;20.930;2023-05-01T01:02:31;100903.78;;;6.77;60.13
30724;BME280;17473;52.286;20.930;2023-05-01T01:04:58;100907.69;;;6.69;60.62
30724;BME280;17473;52.286;20.930;2023-05-01T01:07:50;100905.53;;;6.62;60.73
30724;BME280;17473;52.286;20.930;2023-05-01T01:10:53;100908.44;;;6.66;60.76
30724;BME280;17473;52.286;20.930;2023-05-01T01:16:58;100901.75;;;6.71;60.59
30724;BME280;17473;52.286;20.930;2023-05-01T01:20:20;100895.84;;;6.76;60.65
30724;BME280;17473;52.286;20.930;2023-05-01T01:35:12;100906.53;;;6.49;61.94
30724;BME280;17473;52.286;20.930;2023-05-01T01:38:00;100907.47;;;6.49;61.92
30724;BME280;17473;52.286;20.930;2023-05-01T01:40:36;100911.34;;;6.26;62.69
30724;BME280;17473;52.286;20.930;2023-05-01T01:43:07;100917.59;;;6.13;63.08
30724;BME280;17473;52.286;20.930;2023-05-01T01:45:41;100906.00;;;6.24;63.05
30724;BME280;17473;52.286;20.930;2023-05-01T01:48:13;100918.22;;;6.24;63.28
30724;BME280;17473;52.286;20.930;2023-05-01T01:50:43;100913.88;;;6.24;63.37
30724;BME280;17473;52.286;20.930;2023-05-01T01:53:15;100911.16;;;6.38;63.11
30724;BME280;17473;52.286;20.930;2023-05-01T01:55:45;100914.59;;;6.52;62.58
30724;BME280;17473;52.286;20.930;2023-05-01T01:58:15;100912.25;;;6.26;62.93
30724;BME280;17473;52.286;20.930;2023-05-01T02:00:44;100915.13;;;6.31;63.16
30724;BME280;17473;52.286;20.930;2023-05-01T02:03:12;100910.44;;;6.25;63.23
30724;BME280;17473;52.286;20.930;2023-05-01T02:05:42;100917.03;;;6.19;63.64
30724;BME280;17473;52.286;20.930;2023-05-01T02:08:10;100909.44;;;6.08;63.84
30724;BME280;17473;52.286;20.930;2023-05-01T02:10:43;100913.03;;;6.10;63.78
30724;BME280;17473;52.286;20.930;2023-05-01T02:13:12;100910.25;;;6.07;63.86
30724;BME280;17473;52.286;20.930;2023-05-01T02:15:40;100917.75;;;6.16;63.59
30724;BME280;17473;52.286;20.930;2023-05-01T02:18:08;100915.50;;;6.22;63.56
30724;BME280;17473;52.286;20.930;2023-05-01T02:20:37;100908.25;;;6.18;64.02
30724;BME280;17473;52.286;20.930;2023-05-01T02:23:05;100903.50;;;5.98;64.84
30724;BME280;17473;52.286;20.930;2023-05-01T02:25:36;100906.03;;;5.96;64.66
30724;BME280;17473;52.286;20.930;2023-05-01T02:28:11;100909.53;;;5.96;64.68
30724;BME280;17473;52.286;20.930;2023-05-01T02:30:39;100919.75;;;5.77;64.83
30724;BME280;17473;52.286;20.930;2023-05-01T02:33:07;100912.81;;;5.92;64.64
30724;BME280;17473;52.286;20.930;2023-05-01T02:35:45;100912.53;;;5.88;65.08
30724;BME280;17473;52.286;20.930;2023-05-01T02:38:14;100915.16;;;5.88;65.23
30724;BME280;17473;52.286;20.930;2023-05-01T02:40:48;100919.66;;;6.04;65.32
30724;BME280;17473;52.286;20.930;2023-05-01T02:43:20;100919.13;;;5.96;65.72
30724;BME280;17473;52.286;20.930;2023-05-01T02:45:50;100918.66;;;5.73;66.66
30724;BME280;17473;52.286;20.930;2023-05-01T02:48:24;100915.16;;;5.88;65.97
30724;BME280;17473;52.286;20.930;2023-05-01T02:50:53;100911.22;;;5.81;65.88
30724;BME280;17473;52.286;20.930;2023-05-01T02:53:22;100911.97;;;5.78;65.79
30724;BME280;17473;52.286;20.930;2023-05-01T02:55:49;100911.59;;;5.87;65.47
30724;BME280;17473;52.286;20.930;2023-05-01T02:58:18;100907.81;;;5.82;65.30
30724;BME280;17473;52.286;20.930;2023-05-01T03:00:48;100904.75;;;5.89;65.22
30724;BME280;17473;52.286;20.930;2023-05-01T03:03:16;100912.72;;;5.91;65.20
30724;BME280;17473;52.286;20.930;2023-05-01T03:05:43;100911.81;;;5.90;65.11
30724;BME280;17473;52.286;20.930;2023-05-01T03:08:10;100922.19;;;5.89;65.14
30724;BME280;17473;52.286;20.930;2023-05-01T03:10:41;100912.31;;;5.85;65.39
30724;BME280;17473;52.286;20.930;2023-05-01T03:13:09;100902.84;;;5.87;65.25
30724;BME280;17473;52.286;20.930;2023-05-01T03:15:38;100912.16;;;5.96;64.53
30724;BME280;17473;52.286;20.930;2023-05-01T03:18:05;100908.16;;;6.02;64.61
30724;BME280;17473;52.286;20.930;2023-05-01T03:20:33;100909.78;;;6.00;64.26
30724;BME280;17473;52.286;20.930;2023-05-01T03:23:00;100912.47;;;6.01;64.43
30724;BME280;17473;52.286;20.930;2023-05-01T03:25:27;100907.84;;;5.97;64.53
30724;BME280;17473;52.286;20.930;2023-05-01T03:27:54;100910.06;;;6.04;64.51
30724;BME280;17473;52.286;20.930;2023-05-01T03:30:21;100907.19;;;6.15;63.90
30724;BME280;17473;52.286;20.930;2023-05-01T03:32:49;100906.00;;;6.09;64.24
30724;BME280;17473;52.286;20.930;2023-05-01T03:35:17;100914.03;;;6.13;64.84
30724;BME280;17473;52.286;20.930;2023-05-01T03:37:44;100911.16;;;6.38;64.45
30724;BME280;17473;52.286;20.930;2023-05-01T03:40:11;100906.34;;;6.76;63.33
30724;BME280;17473;52.286;20.930;2023-05-01T03:42:39;100901.13;;;6.92;62.70
30724;BME280;17473;52.286;20.930;2023-05-01T03:45:07;100906.41;;;6.92;62.83
30724;BME280;17473;52.286;20.930;2023-05-01T03:47:34;100899.34;;;7.23;62.38
30724;BME280;17473;52.286;20.930;2023-05-01T03:50:02;100896.50;;;7.84;60.44
30724;BME280;17473;52.286;20.930;2023-05-01T03:52:30;100892.50;;;9.14;56.14
30724;BME280;17473;52.286;20.930;2023-05-01T03:54:57;100901.38;;;10.54;51.60
30724;BME280;17473;52.286;20.930;2023-05-01T03:57:24;100900.47;;;11.41;48.75
30724;BME280;17473;52.286;20.930;2023-05-01T03:59:51;100889.63;;;12.83;45.20
30724;BME280;17473;52.286;20.930;2023-05-01T04:02:19;100893.84;;;13.64;42.63
30724;BME280;17473;52.286;20.930;2023-05-01T04:04:46;100898.50;;;13.71;42.11
30724;BME280;17473;52.286;20.930;2023-05-01T04:07:13;100891.91;;;14.89;39.79
30724;BME280;17473;52.286;20.930;2023-05-01T04:09:41;100896.25;;;16.06;37.56
30724;BME280;17473;52.286;20.930;2023-05-01T04:12:08;100895.72;;;17.32;35.02
30724;BME280;17473;52.286;20.930;2023-05-01T04:14:35;100896.97;;;17.62;34.15
30724;BME280;17473;52.286;20.930;2023-05-01T04:17:03;100899.34;;;19.02;31.58
30724;BME280;17473;52.286;20.930;2023-05-01T04:19:30;100893.38;;;19.48;30.89
30724;BME280;17473;52.286;20.930;2023-05-01T04:21:57;100887.38;;;20.08;29.67
30724;BME280;17473;52.286;20.930;2023-05-01T04:24:24;100890.16;;;20.53;28.97
30724;BME280;17473;52.286;20.930;2023-05-01T04:26:51;100886.56;;;21.00;28.20
30724;BME280;17473;52.286;20.930;2023-05-01T04:29:18;100882.47;;;22.41;26.58
30724;BME280;17473;52.286;20.930;2023-05-01T04:31:45;100877.38;;;23.08;26.01
30724;BME280;17473;52.286;20.930;2023-05-01T04:34:12;100873.44;;;24.74;23.98
30724;BME280;17473;52.286;20.930;2023-05-01T04:36:39;100870.06;;;24.58;23.82
30724;BME280;17473;52.286;20.930;2023-05-01T04:39:07;100884.63;;;25.93;22.43
30724;BME280;17473;52.286;20.930;2023-05-01T04:41:34;100880.97;;;26.37;21.64
30724;BME280;17473;52.286;20.930;2023-05-01T04:44:01;100873.34;;;26.53;21.35
30724;BME280;17473;52.286;20.930;2023-05-01T04:46:28;100879.47;;;26.60;21.04
30724;BME280;17473;52.286;20.930;2023-05-01T04:48:56;100873.47;;;28.40;19.77
30724;BME280;17473;52.286;20.930;2023-05-01T04:51:23;100876.63;;;27.35;19.55
30724;BME280;17473;52.286;20.930;2023-05-01T04:53:50;100872.31;;;27.61;19.45
30724;BME280;17473;52.286;20.930;2023-05-01T04:56:17;100866.16;;;28.16;19.00
30724;BME280;17473;52.286;20.930;2023-05-01T04:58:44;100871.66;;;29.22;18.04
30724;BME280;17473;52.286;20.930;2023-05-01T05:01:11;100865.31;;;30.40;17.89
30724;BME280;17473;52.286;20.930;2023-05-01T05:03:38;100857.00;;;31.48;16.84
30724;BME280;17473;52.286;20.930;2023-05-01T05:06:06;100864.09;;;31.92;16.05
30724;BME280;17473;52.286;20.930;2023-05-01T05:08:33;100868.34;;;30.32;16.90
30724;BME280;17473;52.286;20.930;2023-05-01T05:11:00;100865.94;;;30.89;16.53
30724;BME280;17473;52.286;20.930;2023-05-01T05:13:28;100866.00;;;31.31;16.38
30724;BME280;17473;52.286;20.930;2023-05-01T05:15:55;100859.38;;;31.36;16.20
30724;BME280;17473;52.286;20.930;2023-05-01T05:18:22;100853.00;;;32.33;15.46
30724;BME280;17473;52.286;20.930;2023-05-01T05:20:49;100856.88;;;34.01;14.36
30724;BME280;17473;52.286;20.930;2023-05-01T05:23:16;100857.34;;;33.76;13.90
30724;BME280;17473;52.286;20.930;2023-05-01T05:25:43;100862.09;;;31.95;15.14
30724;BME280;17473;52.286;20.930;2023-05-01T05:28:11;100858.69;;;32.09;15.36
30724;BME280;17473;52.286;20.930;2023-05-01T05:30:38;100861.91;;;33.08;13.82
30724;BME280;17473;52.286;20.930;2023-05-01T05:33:07;100869.84;;;33.31;13.92
30724;BME280;17473;52.286;20.930;2023-05-01T05:35:34;100854.50;;;32.58;14.15
30724;BME280;17473;52.286;20.930;2023-05-01T05:38:02;100856.59;;;33.05;13.80
30724;BME280;17473;52.286;20.930;2023-05-01T05:40:29;100857.91;;;32.26;14.28
30724;BME280;17473;52.286;20.930;2023-05-01T05:42:56;100862.91;;;34.40;13.06
30724;BME280;17473;52.286;20.930;2023-05-01T05:45:24;100857.00;;;33.15;13.93
30724;BME280;17473;52.286;20.930;2023-05-01T05:47:51;100867.19;;;33.96;13.20
30724;BME280;17473;52.286;20.930;2023-05-01T05:50:18;100861.19;;;35.29;12.42
30724;BME280;17473;52.286;20.930;2023-05-01T05:52:45;100864.72;;;34.40;12.89
30724;BME280;17473;52.286;20.930;2023-05-01T05:55:12;100860.13;;;35.17;12.51
30724;BME280;17473;52.286;20.930;2023-05-01T05:57:39;100864.19;;;35.40;11.92
30724;BME280;17473;52.286;20.930;2023-05-01T06:00:07;100861.59;;;36.10;11.93
30724;BME280;17473;52.286;20.930;2023-05-01T06:02:36;100859.88;;;34.75;12.41
30724;BME280;17473;52.286;20.930;2023-05-01T06:05:04;100854.50;;;36.47;11.76
30724;BME280;17473;52.286;20.930;2023-05-01T06:07:31;100862.09;;;35.87;11.73
30724;BME280;17473;52.286;20.930;2023-05-01T06:09:58;100863.59;;;35.64;11.82
30724;BME280;17473;52.286;20.930;2023-05-01T06:12:30;100866.00;;;35.25;11.78
30724;BME280;17473;52.286;20.930;2023-05-01T06:14:59;100867.41;;;35.62;11.69
30724;BME280;17473;52.286;20.930;2023-05-01T06:17:26;100872.78;;;35.63;11.37
30724;BME280;17473;52.286;20.930;2023-05-01T06:19:53;100874.69;;;34.57;11.95
30724;BME280;17473;52.286;20.930;2023-05-01T06:22:21;100865.31;;;36.09;10.73
30724;BME280;17473;52.286;20.930;2023-05-01T06:24:48;100870.34;;;34.99;11.25
30724;BME280;17473;52.286;20.930;2023-05-01T06:27:15;100875.25;;;35.53;10.64
30724;BME280;17473;52.286;20.930;2023-05-01T06:29:42;100874.00;;;34.37;11.58
30724;BME280;17473;52.286;20.930;2023-05-01T06:32:09;100872.59;;;35.66;11.04
30724;BME280;17473;52.286;20.930;2023-05-01T06:34:36;100868.09;;;34.91;11.09
30724;BME280;17473;52.286;20.930;2023-05-01T06:37:03;100870.38;;;32.86;12.06
30724;BME280;17473;52.286;20.930;2023-05-01T06:39:33;100875.88;;;31.73;12.66
30724;BME280;17473;52.286;20.930;2023-05-01T06:42:00;100878.50;;;32.51;12.42
30724;BME280;17473;52.286;20.930;2023-05-01T06:44:29;100877.38;;;32.92;12.32
30724;BME280;17473;52.286;20.930;2023-05-01T06:46:58;100882.44;;;33.35;11.91
30724;BME280;17473;52.286;20.930;2023-05-01T06:49:27;100875.88;;;32.11;12.67
30724;BME280;17473;52.286;20.930;2023-05-01T06:51:54;100865.81;;;32.68;12.35
30724;BME280;17473;52.286;20.930;2023-05-01T06:54:22;100865.59;;;33.25;12.42
30724;BME280;17473;52.286;20.930;2023-05-01T06:56:49;100873.41;;;33.15;11.89
30724;BME280;17473;52.286;20.930;2023-05-01T06:59:16;100870.09;;;32.73;12.21
30724;BME280;17473;52.286;20.930;2023-05-01T07:01:43;100868.28;;;33.94;11.42
30724;BME280;17473;52.286;20.930;2023-05-01T07:04:10;100862.78;;;32.91;12.14
30724;BME280;17473;52.286;20.930;2023-05-01T07:06:37;100868.59;;;31.53;12.60
30724;BME280;17473;52.286;20.930;2023-05-01T07:09:05;100861.84;;;32.38;12.49
30724;BME280;17473;52.286;20.930;2023-05-01T07:11:32;100861.41;;;32.28;12.55
30724;BME280;17473;52.286;20.930;2023-05-01T07:14:00;100853.59;;;32.57;12.67
30724;BME280;17473;52.286;20.930;2023-05-01T07:16:27;100856.88;;;32.46;12.70
30724;BME280;17473;52.286;20.930;2023-05-01T07:18:54;100845.06;;;32.83;12.77
30724;BME280;17473;52.286;20.930;2023-05-01T07:21:22;100854.91;;;32.12;12.84
30724;BME280;17473;52.286;20.930;2023-05-01T07:23:50;100855.69;;;31.77;13.29
30724;BME280;17473;52.286;20.930;2023-05-01T07:26:17;100856.94;;;31.89;13.16
30724;BME280;17473;52.286;20.930;2023-05-01T07:28:44;100856.81;;;32.10;13.12
30724;BME280;17473;52.286;20.930;2023-05-01T07:31:11;100855.41;;;31.63;13.27
30724;BME280;17473;52.286;20.930;2023-05-01T07:33:38;100855.28;;;32.60;12.75
30724;BME280;17473;52.286;20.930;2023-05-01T07:36:05;100863.50;;;31.45;14.09
30724;BME280;17473;52.286;20.930;2023-05-01T07:38:33;100852.19;;;30.92;14.00
30724;BME280;17473;52.286;20.930;2023-05-01T07:41:00;100848.72;;;31.10;14.29
30724;BME280;17473;52.286;20.930;2023-05-01T07:43:28;100860.59;;;29.51;14.81
30724;BME280;17473;52.286;20.930;2023-05-01T07:45:59;100854.06;;;28.53;15.33
30724;BME280;17473;52.286;20.930;2023-05-01T07:48:27;100854.88;;;29.59;14.94
30724;BME280;17473;52.286;20.930;2023-05-01T07:50:55;100859.59;;;29.03;15.10
30724;BME280;17473;52.286;20.930;2023-05-01T07:53:23;100849.19;;;28.91;15.81
30724;BME280;17473;52.286;20.930;2023-05-01T07:55:50;100855.44;;;28.93;15.55
30724;BME280;17473;52.286;20.930;2023-05-01T07:58:17;100851.28;;;27.98;16.49
30724;BME280;17473;52.286;20.930;2023-05-01T08:00:45;100848.50;;;28.29;16.39
30724;BME280;17473;52.286;20.930;2023-05-01T08:03:12;100852.25;;;29.32;15.54
30724;BME280;17473;52.286;20.930;2023-05-01T08:05:41;100846.56;;;28.61;15.76
30724;BME280;17473;52.286;20.930;2023-05-01T08:08:08;100852.41;;;28.76;15.94
30724;BME280;17473;52.286;20.930;2023-05-01T08:10:35;100847.13;;;28.44;16.11
30724;BME280;17473;52.286;20.930;2023-05-01T08:13:02;100843.84;;;28.04;16.45
30724;BME280;17473;52.286;20.930;2023-05-01T08:15:30;100853.53;;;28.41;16.52
30724;BME280;17473;52.286;20.930;2023-05-01T08:17:57;100847.28;;;28.11;16.43
30724;BME280;17473;52.286;20.930;2023-05-01T08:20:24;100847.34;;;27.16;18.03
30724;BME280;17473;52.286;20.930;2023-05-01T08:22:51;100845.91;;;27.66;16.81
30724;BME280;17473;52.286;20.930;2023-05-01T08:25:18;100852.97;;;27.73;17.03
30724;BME280;17473;52.286;20.930;2023-05-01T08:27:46;100855.53;;;27.78;16.60
30724;BME280;17473;52.286;20.930;2023-05-01T08:30:13;100851.25;;;27.38;17.24
30724;BME280;17473;52.286;20.930;2023-05-01T08:32:40;100854.00;;;26.68;18.21
30724;BME280;17473;52.286;20.930;2023-05-01T08:35:08;100852.56;;;27.23;17.50
30724;BME280;17473;52.286;20.930;2023-05-01T08:37:35;100844.13;;;27.96;17.02
30724;BME280;17473;52.286;20.930;2023-05-01T08:40:04;100846.44;;;27.49;17.25
30724;BME280;17473;52.286;20.930;2023-05-01T08:42:35;100852.75;;;26.83;17.92
30724;BME280;17473;52.286;20.930;2023-05-01T08:45:08;100856.16;;;25.77;18.45
30724;BME280;17473;52.286;20.930;2023-05-01T08:47:38;100854.28;;;26.20;18.59
30724;BME280;17473;52.286;20.930;2023-05-01T08:50:09;100846.16;;;26.58;18.81
30724;BME280;17473;52.286;20.930;2023-05-01T08:52:40;100845.19;;;25.41;19.67
30724;BME280;17473;52.286;20.930;2023-05-01T08:55:14;100849.00;;;26.87;18.58
30724;BME280;17473;52.286;20.930;2023-05-01T08:57:47;100856.16;;;24.83;19.43
30724;BME280;17473;52.286;20.930;2023-05-01T09:00:19;100852.59;;;25.73;19.09
30724;BME280;17473;52.286;20.930;2023-05-01T09:02:48;100842.66;;;25.30;19.21
30724;BME280;17473;52.286;20.930;2023-05-01T09:05:18;100846.94;;;24.42;20.15
30724;BME280;17473;52.286;20.930;2023-05-01T09:07:46;100845.69;;;24.61;19.77
30724;BME280;17473;52.286;20.930;2023-05-01T09:10:16;100845.06;;;24.98;19.13
30724;BME280;17473;52.286;20.930;2023-05-01T09:12:55;100845.09;;;25.88;19.15
30724;BME280;17473;52.286;20.930;2023-05-01T09:15:25;100833.56;;;25.78;18.90
30724;BME280;17473;52.286;20.930;2023-05-01T09:17:54;100834.91;;;25.11;19.58
30724;BME280;17473;52.286;20.930;2023-05-01T09:20:22;100834.63;;;25.27;19.37
30724;BME280;17473;52.286;20.930;2023-05-01T09:22:50;100831.28;;;24.64;19.16
30724;BME280;17473;52.286;20.930;2023-05-01T09:25:17;100823.81;;;24.80;19.11
30724;BME280;17473;52.286;20.930;2023-05-01T09:27:45;100837.22;;;24.86;19.28
30724;BME280;17473;52.286;20.930;2023-05-01T09:30:38;100832.56;;;24.94;19.36
30724;BME280;17473;52.286;20.930;2023-05-01T09:33:13;100820.16;;;25.29;18.77
30724;BME280;17473;52.286;20.930;2023-05-01T09:35:55;100820.69;;;25.49;19.36
30724;BME280;17473;52.286;20.930;2023-05-01T09:38:26;100828.03;;;24.95;19.39
30724;BME280;17473;52.286;20.930;2023-05-01T09:41:03;100813.22;;;24.69;19.42
30724;BME280;17473;52.286;20.930;2023-05-01T09:43:31;100812.94;;;25.30;19.17
30724;BME280;17473;52.286;20.930;2023-05-01T09:46:05;100808.28;;;24.93;19.06
30724;BME280;17473;52.286;20.930;2023-05-01T09:48:33;100803.97;;;25.29;18.76
30724;BME280;17473;52.286;20.930;2023-05-01T09:53:50;100800.84;;;24.01;20.16
30724;BME280;17473;52.286;20.930;2023-05-01T09:56:19;100802.47;;;24.10;19.83
30724;BME280;17473;52.286;20.930;2023-05-01T09:58:50;100801.72;;;24.01;19.85
30724;BME280;17473;52.286;20.930;2023-05-01T10:01:18;100794.09;;;23.67;20.06
30724;BME280;17473;52.286;20.930;2023-05-01T10:03:52;100790.47;;;23.70;19.82
30724;BME280;17473;52.286;20.930;2023-05-01T10:06:26;100786.59;;;23.24;20.37
30724;BME280;17473;52.286;20.930;2023-05-01T10:08:54;100796.81;;;23.64;18.87
30724;BME280;17473;52.286;20.930;2023-05-01T10:11:21;100790.25;;;23.84;19.20
30724;BME280;17473;52.286;20.930;2023-05-01T10:14:08;100783.94;;;24.44;18.91
30724;BME280;17473;52.286;20.930;2023-05-01T10:16:39;100781.59;;;23.62;19.34
30724;BME280;17473;52.286;20.930;2023-05-01T10:19:06;100775.47;;;24.13;19.25
30724;BME280;17473;52.286;20.930;2023-05-01T10:21:33;100779.03;;;23.52;20.23
30724;BME280;17473;52.286;20.930;2023-05-01T10:24:01;100767.69;;;23.94;19.94
30724;BME280;17473;52.286;20.930;2023-05-01T10:26:33;100759.41;;;24.57;20.08
30724;BME280;17473;52.286;20.930;2023-05-01T10:29:02;100763.38;;;23.79;20.96
30724;BME280;17473;52.286;20.930;2023-05-01T10:31:30;100769.34;;;23.37;20.60
30724;BME280;17473;52.286;20.930;2023-05-01T10:34:00;100772.19;;;23.26;20.05
30724;BME280;17473;52.286;20.930;2023-05-01T10:36:42;100759.47;;;23.36;20.08
30724;BME280;17473;52.286;20.930;2023-05-01T10:39:30;100761.25;;;23.39;20.14
30724;BME280;17473;52.286;20.930;2023-05-01T10:42:06;100761.78;;;23.64;20.25
30724;BME280;17473;52.286;20.930;2023-05-01T10:44:37;100757.97;;;23.79;19.95
30724;BME280;17473;52.286;20.930;2023-05-01T10:50:13;100746.59;;;23.60;20.80
30724;BME280;17473;52.286;20.930;2023-05-01T10:55:42;100738.03;;;22.47;21.36
30724;BME280;17473;52.286;20.930;2023-05-01T11:01:39;100737.75;;;22.77;20.14
30724;BME280;17473;52.286;20.930;2023-05-01T11:09:51;100737.47;;;22.05;20.50
30724;BME280;17473;52.286;20.930;2023-05-01T11:15:28;100723.03;;;22.20;21.66
30724;BME280;17473;52.286;20.930;2023-05-01T11:17:58;100723.72;;;22.45;21.27
30724;BME280;17473;52.286;20.930;2023-05-01T11:22:55;100720.75;;;21.67;21.31
30724;BME280;17473;52.286;20.930;2023-05-01T11:25:25;100726.47;;;20.96;21.92
30724;BME280;17473;52.286;20.930;2023-05-01T11:28:00;100722.88;;;20.97;22.03
30724;BME280;17473;52.286;20.930;2023-05-01T11:30:38;100714.00;;;20.70;23.28
30724;BME280;17473;52.286;20.930;2023-05-01T11:33:06;100717.50;;;20.95;23.71
30724;BME280;17473;52.286;20.930;2023-05-01T11:35:37;100706.81;;;20.68;23.84
30724;BME280;17473;52.286;20.930;2023-05-01T11:38:04;100700.66;;;20.28;23.80
30724;BME280;17473;52.286;20.930;2023-05-01T11:40:33;100698.88;;;20.09;23.94
30724;BME280;17473;52.286;20.930;2023-05-01T11:43:04;100697.03;;;20.57;23.42
30724;BME280;17473;52.286;20.930;2023-05-01T11:45:34;100697.94;;;20.39;23.76
30724;BME280;17473;52.286;20.930;2023-05-01T11:48:03;100690.81;;;20.20;22.32
30724;BME280;17473;52.286;20.930;2023-05-01T11:53:03;100688.16;;;20.09;21.98
30724;BME280;17473;52.286;20.930;2023-05-01T11:55:32;100689.94;;;20.11;21.77
30724;BME280;17473;52.286;20.930;2023-05-01T11:58:00;100693.47;;;19.73;22.63
30724;BME280;17473;52.286;20.930;2023-05-01T12:00:36;100687.25;;;19.76;22.63
30724;BME280;17473;52.286;20.930;2023-05-01T12:03:07;100684.59;;;19.96;22.90
30724;BME280;17473;52.286;20.930;2023-05-01T12:05:39;100681.00;;;19.78;22.65
30724;BME280;17473;52.286;20.930;2023-05-01T12:08:19;100675.63;;;20.43;21.68
30724;BME280;17473;52.286;20.930;2023-05-01T12:10:53;100674.72;;;20.46;21.65
30724;BME280;17473;52.286;20.930;2023-05-01T12:13:24;100674.75;;;20.13;22.03
30724;BME280;17473;52.286;20.930;2023-05-01T12:15:55;100666.72;;;19.95;22.47
30724;BME280;17473;52.286;20.930;2023-05-01T12:18:22;100679.19;;;19.59;22.46
30724;BME280;17473;52.286;20.930;2023-05-01T12:20:52;100667.59;;;19.53;22.74
30724;BME280;17473;52.286;20.930;2023-05-01T12:23:32;100661.31;;;19.53;22.15
30724;BME280;17473;52.286;20.930;2023-05-01T12:25:59;100656.00;;;19.84;22.50
30724;BME280;17473;52.286;20.930;2023-05-01T12:28:31;100651.53;;;19.78;23.53
30724;BME280;17473;52.286;20.930;2023-05-01T12:31:01;100656.91;;;19.92;22.90
30724;BME280;17473;52.286;20.930;2023-05-01T12:33:31;100649.72;;;19.68;23.22
30724;BME280;17473;52.286;20.930;2023-05-01T12:36:08;100650.59;;;19.54;23.41
30724;BME280;17473;52.286;20.930;2023-05-01T12:38:38;100647.06;;;19.71;23.19
30724;BME280;17473;52.286;20.930;2023-05-01T12:41:05;100647.09;;;19.85;23.07
30724;BME280;17473;52.286;20.930;2023-05-01T12:43:36;100637.22;;;20.10;22.65
30724;BME280;17473;52.286;20.930;2023-05-01T12:46:04;100641.72;;;19.94;22.90
30724;BME280;17473;52.286;20.930;2023-05-01T12:48:32;100628.25;;;19.31;23.79
30724;BME280;17473;52.286;20.930;2023-05-01T12:51:05;100637.16;;;19.20;23.92
30724;BME280;17473;52.286;20.930;2023-05-01T12:53:33;100625.59;;;19.55;23.31
30724;BME280;17473;52.286;20.930;2023-05-01T12:56:01;100632.78;;;19.69;22.96
30724;BME280;17473;52.286;20.930;2023-05-01T12:58:36;100626.50;;;19.71;22.67
30724;BME280;17473;52.286;20.930;2023-05-01T13:01:04;100622.94;;;19.59;22.85
30724;BME280;17473;52.286;20.930;2023-05-01T13:03:33;100615.78;;;19.48;22.84
30724;BME280;17473;52.286;20.930;2023-05-01T13:06:05;100609.56;;;19.63;22.86
30724;BME280;17473;52.286;20.930;2023-05-01T13:08:36;100597.88;;;18.98;24.20
30724;BME280;17473;52.286;20.930;2023-05-01T13:11:13;100597.00;;;19.10;24.27
30724;BME280;17473;52.286;20.930;2023-05-01T13:13:45;100594.34;;;19.28;23.29
30724;BME280;17473;52.286;20.930;2023-05-01T13:16:15;100614.78;;;18.90;23.95
30724;BME280;17473;52.286;20.930;2023-05-01T13:18:47;100594.31;;;18.94;23.25
30724;BME280;17473;52.286;20.930;2023-05-01T13:21:18;100596.97;;;18.94;23.95
30724;BME280;17473;52.286;20.930;2023-05-01T13:23:59;100585.41;;;19.00;23.87
30724;BME280;17473;52.286;20.930;2023-05-01T13:26:29;100580.06;;;19.09;23.52
30724;BME280;17473;52.286;20.930;2023-05-01T13:28:59;100592.44;;;18.79;24.00
30724;BME280;17473;52.286;20.930;2023-05-01T13:31:28;100583.56;;;18.89;24.13
30724;BME280;17473;52.286;20.930;2023-05-01T13:33:58;100586.31;;;19.25;23.88
30724;BME280;17473;52.286;20.930;2023-05-01T13:36:30;100573.81;;;19.29;23.62